Time;durP1;ratioP1;P1;durP2;ratioP2;P2;SDS_P1;SDS_P2;PMS_P1;PMS_P2;Temp;Humidity;BMP_temperature;BMP_pressure;BME280_temperature;BME280_humidity;BME280_pressure;Samples;Min_cycle;Max_cycle;Signal;HPM_P1;HPM_P2
2021/06/11 00:01:27;;;;;;;2.00;1.90;;;17.60;99.90;;;;;;4885469;28;20738;-80
2021/06/11 00:03:53;;;;;;;2.20;2.10;;;17.70;99.90;;;;;;4886914;28;20761;-81
2021/06/11 00:06:18;;;;;;;2.17;1.98;;;17.60;99.90;;;;;;4896031;29;20420;-84
2021/06/11 00:08:44;;;;;;;2.47;2.28;;;17.60;99.90;;;;;;4868130;29;20914;-81
2021/06/11 00:11:10;;;;;;;2.03;1.90;;;17.50;99.90;;;;;;4883847;29;20864;-80
2021/06/11 00:13:35;;;;;;;2.60;2.40;;;17.50;99.90;;;;;;4882910;28;20456;-80
2021/06/11 00:16:01;;;;;;;2.38;2.17;;;17.40;99.90;;;;;;4930591;29;20396;-81
2021/06/11 00:18:27;;;;;;;1.90;1.80;;;17.40;99.90;;;;;;4897293;29;20480;-79
2021/06/11 00:20:53;;;;;;;2.33;2.13;;;17.40;99.90;;;;;;4900735;28;20441;-78
2021/06/11 00:23:19;;;;;;;2.15;2.05;;;17.40;99.90;;;;;;4899554;29;20426;-77
2021/06/11 00:25:45;;;;;;;2.40;2.05;;;17.50;99.90;;;;;;4901954;29;20912;-77
2021/06/11 00:28:11;;;;;;;2.17;2.08;;;17.50;99.90;;;;;;4903170;29;20398;-77
2021/06/11 00:30:39;;;;;;;2.28;2.17;;;17.50;99.90;;;;;;4917305;29;20930;-77
2021/06/11 00:33:06;;;;;;;2.20;2.00;;;17.50;99.90;;;;;;4913940;29;20431;-76
2021/06/11 00:35:32;;;;;;;2.30;2.10;;;17.40;99.90;;;;;;4907361;29;20398;-77
2021/06/11 00:37:58;;;;;;;3.38;2.00;;;17.40;99.90;;;;;;4878179;29;20411;-78
2021/06/11 00:40:24;;;;;;;2.63;2.22;;;17.30;99.90;;;;;;4883495;29;20411;-80
2021/06/11 00:42:53;;;;;;;1.90;1.80;;;17.30;99.90;;;;;;4902665;29;20920;-76
2021/06/11 00:45:18;;;;;;;2.13;2.00;;;17.30;99.90;;;;;;4913583;29;21025;-77
2021/06/11 00:47:47;;;;;;;2.60;2.40;;;17.30;99.90;;;;;;4920159;28;20426;-77
2021/06/11 00:50:16;;;;;;;2.28;2.17;;;17.30;99.90;;;;;;4902058;29;20437;-78
2021/06/11 00:52:41;;;;;;;1.90;1.80;;;17.30;99.90;;;;;;4920478;28;20435;-76
2021/06/11 00:55:08;;;;;;;2.20;2.10;;;17.30;99.90;;;;;;4925705;28;20407;-77
2021/06/11 00:57:33;;;;;;;2.00;1.90;;;17.30;99.90;;;;;;4903390;29;20429;-76
2021/06/11 00:59:59;;;;;;;2.00;1.90;;;17.30;99.90;;;;;;4900485;29;20497;-77
2021/06/11 01:02:25;;;;;;;2.40;2.20;;;17.30;99.90;;;;;;4899385;28;20394;-77
2021/06/11 01:04:51;;;;;;;2.20;2.10;;;17.30;99.90;;;;;;4897453;29;20490;-78
2021/06/11 01:07:18;;;;;;;2.33;2.17;;;17.30;99.90;;;;;;4912966;28;20399;-80
2021/06/11 01:09:43;;;;;;;2.30;2.10;;;17.30;99.90;;;;;;4900263;29;20498;-77
2021/06/11 01:12:09;;;;;;;2.50;2.30;;;17.20;99.90;;;;;;4916369;29;21029;-76
2021/06/11 01:14:35;;;;;;;2.30;2.20;;;17.20;99.90;;;;;;4902891;29;20394;-77
2021/06/11 01:17:01;;;;;;;2.05;1.95;;;17.20;99.90;;;;;;4897129;29;20448;-77
2021/06/11 01:19:30;;;;;;;2.13;2.00;;;17.20;99.90;;;;;;4901516;29;20461;-78
2021/06/11 01:22:05;;;;;;;2.10;2.00;;;17.20;99.90;;;;;;4900086;28;20406;-77
2021/06/11 01:24:33;;;;;;;1.80;1.70;;;17.20;99.90;;;;;;4885416;28;20409;-77
2021/06/11 01:26:58;;;;;;;2.35;2.20;;;17.20;99.90;;;;;;4897590;29;20929;-77
2021/06/11 01:29:29;;;;;;;2.10;1.90;;;17.20;99.90;;;;;;4916921;29;20402;-76
2021/06/11 01:32:03;;;;;;;2.10;2.00;;;17.20;99.90;;;;;;4917251;29;20413;-77
2021/06/11 01:34:33;;;;;;;1.98;1.80;;;17.10;99.90;;;;;;4902715;28;20438;-77
2021/06/11 01:37:01;;;;;;;2.00;1.90;;;17.10;99.90;;;;;;4884946;28;20418;-77
2021/06/11 01:39:27;;;;;;;2.08;1.98;;;17.10;99.90;;;;;;4923970;28;20398;-77
2021/06/11 01:41:52;;;;;;;2.97;2.30;;;17.20;99.90;;;;;;4884889;28;20462;-76
2021/06/11 01:44:18;;;;;;;2.10;2.00;;;17.20;99.90;;;;;;4886799;29;20472;-76
2021/06/11 01:46:44;;;;;;;2.00;1.90;;;17.20;99.90;;;;;;4899878;29;21258;-77
2021/06/11 01:49:10;;;;;;;2.08;1.90;;;17.10;99.90;;;;;;4899958;29;20405;-77
2021/06/11 01:51:36;;;;;;;1.90;1.80;;;17.10;99.90;;;;;;4911740;29;20997;-77
2021/06/11 01:54:03;;;;;;;2.28;2.17;;;17.10;99.90;;;;;;4895384;29;20437;-77
2021/06/11 01:56:28;;;;;;;2.10;2.00;;;17.10;99.90;;;;;;4907276;29;20493;-78
2021/06/11 01:58:54;;;;;;;3.17;2.17;;;17.10;99.90;;;;;;4885485;29;20472;-76
2021/06/11 02:01:20;;;;;;;2.83;2.20;;;17.10;99.90;;;;;;4879448;29;20402;-76
2021/06/11 02:03:47;;;;;;;2.58;2.38;;;17.10;99.90;;;;;;4927013;29;20465;-76
2021/06/11 02:06:16;;;;;;;2.10;2.00;;;17.10;99.90;;;;;;4901023;29;20417;-77
2021/06/11 02:08:43;;;;;;;2.30;2.10;;;17.10;99.90;;;;;;4919330;28;20478;-77
2021/06/11 02:11:09;;;;;;;2.03;1.93;;;17.10;99.90;;;;;;4908668;29;20399;-76
2021/06/11 02:13:35;;;;;;;2.30;2.10;;;17.00;99.90;;;;;;4911162;29;20473;-76
2021/06/11 02:16:02;;;;;;;2.55;2.35;;;16.90;99.90;;;;;;4905831;29;20476;-76
2021/06/11 02:18:28;;;;;;;2.15;2.05;;;16.90;99.90;;;;;;4900366;29;20427;-78
2021/06/11 02:20:54;;;;;;;2.47;2.27;;;16.90;99.90;;;;;;4915667;28;20938;-76
2021/06/11 02:23:20;;;;;;;2.50;2.30;;;16.90;99.90;;;;;;4889223;29;20483;-77
2021/06/11 02:25:45;;;;;;;2.07;1.97;;;16.80;99.90;;;;;;4898414;29;20441;-77
2021/06/11 02:28:16;;;;;;;2.35;2.15;;;16.80;99.90;;;;;;4916160;28;20420;-78
2021/06/11 02:30:43;;;;;;;2.55;2.35;;;16.80;99.90;;;;;;4918333;29;20511;-78
2021/06/11 02:33:11;;;;;;;2.65;2.45;;;16.70;99.90;;;;;;4895176;29;20410;-77
2021/06/11 02:35:37;;;;;;;2.30;2.10;;;16.70;99.90;;;;;;4884087;29;20403;-77
2021/06/11 02:38:02;;;;;;;2.23;2.13;;;16.70;99.90;;;;;;4908620;29;20386;-78
2021/06/11 02:40:28;;;;;;;2.25;2.15;;;16.60;99.90;;;;;;4885361;29;20481;-77
2021/06/11 02:42:57;;;;;;;2.37;2.17;;;16.70;99.90;;;;;;4890023;29;20426;-78
2021/06/11 02:45:25;;;;;;;2.20;2.10;;;16.60;99.90;;;;;;4883363;28;20437;-78
2021/06/11 02:48:00;;;;;;;2.22;2.13;;;16.70;99.90;;;;;;4886745;28;20908;-78
2021/06/11 02:50:28;;;;;;;2.50;2.30;;;16.70;99.90;;;;;;4920913;29;20402;-77
2021/06/11 02:52:56;;;;;;;2.17;2.08;;;16.70;99.90;;;;;;4904586;28;20409;-77
2021/06/11 02:55:21;;;;;;;2.30;2.10;;;16.80;99.90;;;;;;4904349;28;20489;-77
2021/06/11 02:58:13;;;;;;;2.20;2.00;;;16.80;99.90;;;;;;4889536;29;20773;-77
2021/06/11 03:00:40;;;;;;;2.33;2.13;;;16.70;99.90;;;;;;4909730;29;20420;-77
2021/06/11 03:03:09;;;;;;;2.67;2.47;;;16.70;99.90;;;;;;4920247;28;20413;-78
2021/06/11 03:05:35;;;;;;;2.40;2.20;;;16.70;99.90;;;;;;4923922;29;20409;-78
2021/06/11 03:08:02;;;;;;;2.25;2.10;;;16.60;99.90;;;;;;4927927;28;20421;-78
2021/06/11 03:10:30;;;;;;;2.70;2.50;;;16.60;99.90;;;;;;4907413;29;20397;-77
2021/06/11 03:12:57;;;;;;;2.47;2.30;;;16.60;99.90;;;;;;4911741;29;20525;-77
2021/06/11 03:15:24;;;;;;;2.58;2.42;;;16.60;99.90;;;;;;4881089;28;20445;-77
2021/06/11 03:17:52;;;;;;;2.40;2.20;;;16.60;99.90;;;;;;4905631;28;20398;-77
2021/06/11 03:20:21;;;;;;;2.50;2.30;;;16.70;99.90;;;;;;4888890;29;20401;-77
2021/06/11 03:23:01;;;;;;;1.90;1.80;;;16.60;99.90;;;;;;4898453;29;20420;-76
2021/06/11 03:25:31;;;;;;;2.60;2.40;;;16.60;99.90;;;;;;4922093;28;20414;-77
2021/06/11 03:28:02;;;;;;;2.60;2.40;;;16.60;99.90;;;;;;4907067;28;21107;-77
2021/06/11 03:30:28;;;;;;;2.72;2.53;;;16.70;99.90;;;;;;4913630;28;20458;-76
2021/06/11 03:32:57;;;;;;;2.30;2.20;;;16.70;99.90;;;;;;4915590;29;20407;-76
2021/06/11 03:35:33;;;;;;;2.90;2.60;;;16.70;99.90;;;;;;4887502;29;20407;-79
2021/06/11 03:37:59;;;;;;;2.90;2.47;;;16.70;99.90;;;;;;4894596;29;20395;-78
2021/06/11 03:40:28;;;;;;;2.70;2.50;;;16.70;99.90;;;;;;4902140;29;20867;-78
2021/06/11 03:42:54;;;;;;;3.08;2.78;;;16.70;99.90;;;;;;4906629;28;20442;-78
2021/06/11 03:45:20;;;;;;;2.92;2.67;;;16.80;99.90;;;;;;4904794;28;20453;-78
2021/06/11 03:47:46;;;;;;;2.67;2.47;;;16.80;99.90;;;;;;4881027;29;20404;-78
2021/06/11 03:50:12;;;;;;;2.70;2.50;;;16.80;99.90;;;;;;4903390;29;20411;-79
2021/06/11 03:52:39;;;;;;;3.50;3.20;;;16.80;99.90;;;;;;4887274;29;21123;-80
2021/06/11 03:55:09;;;;;;;3.78;2.80;;;16.80;99.90;;;;;;4887508;29;20411;-80
2021/06/11 03:57:35;;;;;;;2.67;2.47;;;16.80;99.90;;;;;;4903419;29;20409;-79
2021/06/11 04:00:01;;;;;;;6.43;2.70;;;16.80;99.90;;;;;;4896724;29;20415;-80
2021/06/11 04:02:27;;;;;;;3.00;2.80;;;16.90;99.90;;;;;;4886089;29;20466;-83
2021/06/11 04:04:53;;;;;;;3.10;2.90;;;16.90;99.90;;;;;;4887710;28;20469;-79
2021/06/11 04:07:24;;;;;;;3.40;3.13;;;16.90;99.90;;;;;;4899625;29;20944;-79
2021/06/11 04:09:50;;;;;;;3.00;2.80;;;17.00;99.90;;;;;;4914941;29;20404;-79
2021/06/11 04:12:24;;;;;;;2.90;2.70;;;17.00;99.90;;;;;;4902612;29;20400;-79
2021/06/11 04:14:51;;;;;;;3.05;2.83;;;17.10;99.90;;;;;;4903016;29;20485;-78
2021/06/11 04:17:24;;;;;;;2.88;2.67;;;17.10;99.90;;;;;;4901817;28;20406;-78
2021/06/11 04:19:55;;;;;;;3.60;3.30;;;17.20;99.90;;;;;;4903672;28;20402;-78
2021/06/11 04:22:26;;;;;;;3.40;3.10;;;17.20;99.90;;;;;;4900287;29;20401;-81
2021/06/11 04:24:52;;;;;;;3.33;3.03;;;17.20;99.90;;;;;;4915234;29;20395;-80
2021/06/11 04:27:18;;;;;;;3.37;3.00;;;17.30;99.90;;;;;;4899032;29;20396;-78
2021/06/11 04:29:46;;;;;;;2.83;2.63;;;17.40;99.90;;;;;;4887128;29;20400;-78
2021/06/11 04:32:11;;;;;;;3.15;2.95;;;17.50;99.90;;;;;;4916689;29;20485;-78
2021/06/11 04:34:37;;;;;;;3.00;2.80;;;17.60;99.90;;;;;;4901896;28;20489;-77
2021/06/11 04:37:03;;;;;;;2.97;2.70;;;17.70;99.90;;;;;;4939537;28;20390;-77
2021/06/11 04:39:29;;;;;;;2.58;2.40;;;17.70;99.90;;;;;;4913646;28;20473;-77
2021/06/11 04:41:54;;;;;;;5.72;2.70;;;17.80;99.90;;;;;;4901383;28;20488;-79
2021/06/11 04:44:22;;;;;;;3.17;2.88;;;17.90;99.90;;;;;;4886315;29;20923;-78
2021/06/11 04:46:48;;;;;;;3.05;2.75;;;17.90;99.90;;;;;;4885920;28;20485;-81
2021/06/11 04:49:13;;;;;;;2.65;2.45;;;18.00;99.90;;;;;;4933198;29;20430;-80
2021/06/11 04:51:39;;;;;;;2.90;2.70;;;18.10;99.90;;;;;;4901549;29;20402;-79
2021/06/11 04:54:05;;;;;;;2.45;2.33;;;18.10;99.90;;;;;;4933118;29;20427;-81
2021/06/11 04:56:31;;;;;;;2.73;2.53;;;18.10;99.90;;;;;;4914405;29;20489;-81
2021/06/11 04:58:58;;;;;;;2.83;2.63;;;18.20;99.90;;;;;;4918721;29;20430;-86
2021/06/11 05:01:24;;;;;;;2.80;2.60;;;18.30;99.90;;;;;;4913229;28;20382;-90
2021/06/11 05:03:50;;;;;;;2.80;2.60;;;18.50;99.90;;;;;;4926168;28;20469;-87
2021/06/11 05:06:15;;;;;;;3.47;3.17;;;18.50;99.90;;;;;;4911414;28;20394;-90
2021/06/11 05:08:42;;;;;;;3.30;3.00;;;18.50;99.90;;;;;;4897063;29;20402;-82
2021/06/11 05:11:08;;;;;;;3.20;3.00;;;18.60;99.90;;;;;;4913703;29;20445;-82
2021/06/11 05:13:34;;;;;;;3.15;2.95;;;18.40;99.90;;;;;;4893214;29;20490;-83
2021/06/11 05:15:59;;;;;;;3.47;3.17;;;18.50;99.90;;;;;;4896660;29;20390;-84
2021/06/11 05:18:26;;;;;;;3.10;2.80;;;18.60;99.90;;;;;;4901388;29;20438;-80
2021/06/11 05:20:52;;;;;;;2.85;2.65;;;18.70;99.90;;;;;;4885591;28;20420;-84
2021/06/11 05:23:19;;;;;;;3.45;3.15;;;18.90;99.90;;;;;;4883868;29;20398;-78
2021/06/11 05:25:46;;;;;;;3.00;2.65;;;19.00;99.90;;;;;;4900208;28;20501;-78
2021/06/11 05:28:11;;;;;;;2.70;2.50;;;19.20;99.90;;;;;;4879606;28;20465;-79
2021/06/11 05:30:37;;;;;;;3.13;2.93;;;19.30;99.90;;;;;;4894575;29;20922;-80
2021/06/11 05:33:03;;;;;;;2.83;2.60;;;19.40;99.90;;;;;;4915503;28;20406;-78
2021/06/11 05:35:30;;;;;;;3.25;3.00;;;19.40;99.90;;;;;;4900406;28;20515;-80
2021/06/11 05:37:58;;;;;;;2.80;2.60;;;19.40;99.90;;;;;;4901357;29;20422;-80
2021/06/11 05:40:23;;;;;;;3.60;3.13;;;19.50;99.90;;;;;;4886739;28;20481;-82
2021/06/11 05:42:49;;;;;;;2.63;2.43;;;19.50;99.90;;;;;;4900761;28;20512;-84
2021/06/11 05:45:15;;;;;;;2.92;2.72;;;19.50;99.90;;;;;;4900984;28;20413;-81
2021/06/11 05:47:41;;;;;;;3.13;2.87;;;19.60;99.90;;;;;;4888132;29;20407;-83
2021/06/11 05:50:07;;;;;;;3.03;2.83;;;19.60;99.90;;;;;;4889723;28;20417;-80
2021/06/11 05:52:34;;;;;;;3.20;2.90;;;19.60;99.90;;;;;;4901849;29;20760;-82
2021/06/11 05:54:59;;;;;;;3.38;3.08;;;19.70;99.90;;;;;;4900179;28;20404;-80
2021/06/11 05:57:25;;;;;;;3.40;3.10;;;19.80;99.90;;;;;;4900559;28;20401;-83
2021/06/11 05:59:53;;;;;;;2.83;2.63;;;19.80;99.90;;;;;;4901451;28;20768;-81
2021/06/11 06:02:19;;;;;;;3.10;2.90;;;20.00;99.90;;;;;;4900119;29;20481;-81
2021/06/11 06:04:45;;;;;;;2.63;2.42;;;20.30;99.90;;;;;;4885063;29;20531;-80
2021/06/11 06:07:11;;;;;;;2.72;2.50;;;20.70;99.90;;;;;;4885816;29;20409;-81
2021/06/11 06:09:37;;;;;;;2.60;2.40;;;21.00;99.90;;;;;;4900150;29;20402;-81
2021/06/11 06:12:03;;;;;;;2.50;2.30;;;21.30;99.90;;;;;;4924152;29;20469;-78
2021/06/11 06:14:28;;;;;;;4.18;2.03;;;21.50;99.90;;;;;;4902297;29;20409;-78
2021/06/11 06:16:54;;;;;;;2.20;2.10;;;21.50;99.90;;;;;;4891802;29;20398;-83
2021/06/11 06:19:19;;;;;;;2.22;2.10;;;21.70;99.90;;;;;;4899628;29;21049;-78
2021/06/11 06:21:45;;;;;;;2.20;2.00;;;21.90;99.90;;;;;;4882596;28;20409;-79
2021/06/11 06:24:11;;;;;;;4.20;2.38;;;22.20;99.90;;;;;;4898560;29;20481;-78
2021/06/11 06:26:37;;;;;;;2.03;1.87;;;22.50;99.90;;;;;;4887083;28;20413;-79
2021/06/11 06:29:02;;;;;;;2.60;2.40;;;22.70;99.90;;;;;;4886551;29;20939;-82
2021/06/11 06:31:28;;;;;;;2.28;2.08;;;22.80;99.90;;;;;;4915264;29;20429;-82
2021/06/11 06:33:54;;;;;;;4.97;2.22;;;22.90;99.90;;;;;;4883947;29;20409;-81
2021/06/11 06:36:20;;;;;;;1.70;1.60;;;23.00;99.90;;;;;;4899800;28;20937;-81
2021/06/11 06:38:46;;;;;;;2.30;2.10;;;23.00;99.90;;;;;;4882980;29;20414;-79
2021/06/11 06:41:14;;;;;;;2.58;2.30;;;23.10;99.90;;;;;;4888459;29;20422;-79
2021/06/11 06:43:40;;;;;;;2.60;2.40;;;23.30;99.90;;;;;;4903984;29;20411;-79
2021/06/11 06:46:07;;;;;;;2.17;2.07;;;23.30;99.90;;;;;;4884922;29;20490;-82
2021/06/11 06:48:33;;;;;;;2.78;2.58;;;23.30;99.90;;;;;;4885941;29;20437;-78
2021/06/11 06:50:58;;;;;;;2.40;2.20;;;23.30;99.90;;;;;;4898168;29;20434;-79
2021/06/11 06:53:24;;;;;;;2.43;2.20;;;23.40;99.90;;;;;;4913971;29;20865;-81
2021/06/11 06:55:50;;;;;;;2.20;2.00;;;23.40;99.90;;;;;;4913660;29;20448;-80
2021/06/11 06:58:16;;;;;;;2.30;2.10;;;23.60;99.90;;;;;;4930293;29;20396;-81
2021/06/11 07:00:42;;;;;;;2.22;2.03;;;23.90;99.90;;;;;;4934647;28;20537;-80
2021/06/11 07:03:07;;;;;;;2.10;2.00;;;24.10;99.90;;;;;;4896171;29;21010;-79
2021/06/11 07:05:33;;;;;;;2.30;2.15;;;24.30;99.90;;;;;;4893379;29;20410;-79
2021/06/11 07:07:59;;;;;;;2.08;1.98;;;24.20;99.90;;;;;;4890150;29;20477;-79
2021/06/11 07:10:25;;;;;;;1.93;1.83;;;24.20;99.90;;;;;;4911977;28;20406;-80
2021/06/11 07:12:50;;;;;;;2.08;1.90;;;24.50;99.90;;;;;;4910337;29;20410;-78
2021/06/11 07:15:16;;;;;;;1.83;1.73;;;24.90;99.90;;;;;;4911455;29;20422;-78
2021/06/11 07:17:42;;;;;;;1.98;1.88;;;25.10;99.90;;;;;;4903113;28;20391;-79
2021/06/11 07:20:09;;;;;;;2.10;1.90;;;25.40;99.90;;;;;;4928157;29;20410;-80
2021/06/11 07:22:34;;;;;;;2.08;1.98;;;25.40;99.90;;;;;;4905322;29;20464;-79
2021/06/11 07:25:02;;;;;;;1.70;1.60;;;25.60;99.90;;;;;;4880175;29;20403;-79
2021/06/11 07:27:31;;;;;;;1.90;1.80;;;25.70;99.90;;;;;;4922238;29;20546;-79
2021/06/11 07:30:04;;;;;;;1.83;1.73;;;25.80;99.90;;;;;;4921729;28;20500;-81
2021/06/11 07:32:30;;;;;;;1.80;1.58;;;26.00;99.90;;;;;;4918841;28;20432;-79
2021/06/11 07:34:57;;;;;;;2.47;1.63;;;26.20;99.90;;;;;;4901816;29;20393;-79
2021/06/11 07:37:23;;;;;;;1.63;1.52;;;26.50;99.90;;;;;;4919712;28;20604;-79
2021/06/11 07:39:49;;;;;;;1.87;1.77;;;26.40;99.90;;;;;;4895275;29;20999;-79
2021/06/11 07:42:14;;;;;;;2.50;2.30;;;26.70;99.90;;;;;;4900163;29;20438;-79
2021/06/11 07:44:41;;;;;;;1.73;1.63;;;26.80;99.90;;;;;;4900053;29;20404;-79
2021/06/11 07:47:07;;;;;;;1.55;1.45;;;27.20;99.90;;;;;;4899626;29;20415;-80
2021/06/11 07:49:33;;;;;;;1.55;1.45;;;27.50;99.90;;;;;;4869184;29;22411;-80
2021/06/11 07:51:59;;;;;;;1.60;1.50;;;27.80;99.90;;;;;;4899861;29;20410;-79
2021/06/11 07:54:25;;;;;;;2.25;2.08;;;27.90;99.90;;;;;;4900810;29;20415;-80
2021/06/11 07:56:51;;;;;;;1.52;1.42;;;28.00;99.90;;;;;;4884634;29;20476;-81
2021/06/11 07:59:16;;;;;;;1.43;1.33;;;28.10;99.90;;;;;;4870306;29;20403;-80
2021/06/11 08:01:42;;;;;;;1.35;1.33;;;28.20;98.50;;;;;;4900080;29;20388;-80
2021/06/11 08:04:08;;;;;;;3.50;1.60;;;28.40;99.80;;;;;;4892088;29;20413;-77
2021/06/11 08:06:34;;;;;;;1.77;1.67;;;28.50;99.80;;;;;;4891202;29;20754;-77
2021/06/11 08:08:59;;;;;;;1.58;1.48;;;28.60;95.00;;;;;;4883226;29;20403;-78
2021/06/11 08:11:25;;;;;;;1.60;1.50;;;28.40;96.40;;;;;;4911208;29;20397;-78
2021/06/11 08:13:51;;;;;;;1.70;1.60;;;28.30;95.30;;;;;;4911624;29;20406;-78
2021/06/11 08:16:16;;;;;;;1.87;1.57;;;28.30;95.70;;;;;;4918867;28;20409;-78
2021/06/11 08:18:42;;;;;;;2.38;1.70;;;28.50;95.80;;;;;;4885789;29;20406;-78
2021/06/11 08:21:08;;;;;;;1.70;1.60;;;28.70;96.70;;;;;;4897092;29;20950;-78
2021/06/11 08:23:34;;;;;;;1.30;1.30;;;28.90;95.00;;;;;;4881080;28;20410;-78
2021/06/11 08:25:59;;;;;;;1.88;1.70;;;29.10;94.40;;;;;;4898974;29;20420;-77
2021/06/11 08:28:25;;;;;;;1.60;1.50;;;29.20;94.20;;;;;;4917671;29;20409;-78
2021/06/11 08:30:51;;;;;;;1.83;1.73;;;29.20;92.20;;;;;;4920309;29;20480;-78
2021/06/11 08:33:16;;;;;;;1.77;1.67;;;29.10;93.00;;;;;;4916492;29;20432;-78
2021/06/11 08:35:42;;;;;;;1.83;1.60;;;29.30;93.40;;;;;;4889925;29;20410;-80
2021/06/11 08:38:08;;;;;;;1.73;1.63;;;29.70;93.30;;;;;;4933686;29;20413;-81
2021/06/11 08:40:33;;;;;;;1.67;1.53;;;29.80;90.60;;;;;;4919185;29;20425;-81
2021/06/11 08:42:59;;;;;;;1.60;1.50;;;29.80;91.90;;;;;;4918315;29;20410;-80
2021/06/11 08:45:25;;;;;;;2.20;1.63;;;30.10;91.50;;;;;;4916796;29;20414;-80
2021/06/11 08:47:52;;;;;;;2.57;1.60;;;30.20;91.00;;;;;;4934542;28;20393;-80
2021/06/11 08:50:23;;;;;;;1.83;1.73;;;30.20;89.70;;;;;;4901324;28;20504;-80
2021/06/11 08:52:49;;;;;;;1.80;1.70;;;30.00;90.40;;;;;;4900496;29;20431;-80
2021/06/11 08:55:15;;;;;;;1.70;1.60;;;30.10;86.60;;;;;;4899602;29;20982;-79
2021/06/11 08:57:41;;;;;;;4.13;1.95;;;30.10;89.10;;;;;;4883252;29;20408;-80
2021/06/11 09:00:07;;;;;;;1.70;1.60;;;30.20;86.90;;;;;;4898882;28;20419;-79
2021/06/11 09:02:33;;;;;;;1.85;1.75;;;30.20;87.20;;;;;;4916998;28;20393;-83
2021/06/11 09:04:59;;;;;;;2.25;1.75;;;30.20;87.90;;;;;;4901495;28;20453;-80
2021/06/11 09:07:29;;;;;;;1.83;1.73;;;30.60;90.90;;;;;;4902096;29;20398;-79
2021/06/11 09:10:06;;;;;;;2.80;2.00;;;31.00;87.70;;;;;;4918083;28;20390;-80
2021/06/11 09:12:37;;;;;;;1.90;1.80;;;31.20;80.60;;;;;;4914512;29;20968;-81
2021/06/11 09:15:11;;;;;;;1.70;1.60;;;31.10;80.20;;;;;;4899772;29;20422;-81
2021/06/11 09:17:41;;;;;;;1.80;1.70;;;31.10;82.50;;;;;;4902977;29;20902;-80
2021/06/11 09:20:18;;;;;;;1.83;1.73;;;31.30;85.30;;;;;;4904149;28;20457;-80
2021/06/11 09:22:47;;;;;;;2.05;1.95;;;31.70;81.30;;;;;;4912326;28;20422;-80
2021/06/11 09:25:26;;;;;;;2.20;2.08;;;32.10;80.00;;;;;;4943876;29;21013;-80
2021/06/11 09:28:13;;;;;;;1.90;1.80;;;32.30;80.00;;;;;;4934076;28;20396;-79
2021/06/11 09:30:39;;;;;;;2.30;2.05;;;32.50;78.40;;;;;;4898661;29;20489;-80
2021/06/11 09:33:09;;;;;;;2.20;2.00;;;32.70;72.80;;;;;;4915396;29;20419;-79
2021/06/11 09:35:58;;;;;;;1.90;1.80;;;32.80;72.60;;;;;;4912233;28;20410;-78
2021/06/11 09:38:26;;;;;;;1.83;1.73;;;32.60;72.20;;;;;;4885441;29;20404;-82
2021/06/11 09:40:58;;;;;;;1.90;1.80;;;32.80;75.40;;;;;;4917005;29;20410;-82
2021/06/11 09:43:26;;;;;;;2.10;2.00;;;33.20;72.60;;;;;;4935959;28;20416;-82
2021/06/11 09:46:04;;;;;;;1.85;1.75;;;33.20;72.90;;;;;;4903124;29;20843;-81
2021/06/11 09:48:38;;;;;;;1.95;1.85;;;33.40;71.70;;;;;;4900586;29;20483;-82
2021/06/11 09:51:12;;;;;;;2.22;2.03;;;34.10;71.90;;;;;;4901555;28;20408;-81
2021/06/11 09:53:38;;;;;;;2.33;2.13;;;34.10;66.20;;;;;;4905524;29;20401;-83
2021/06/11 09:56:03;;;;;;;2.00;1.90;;;34.40;67.80;;;;;;4908826;29;20401;-83
2021/06/11 09:58:31;;;;;;;1.95;1.85;;;34.60;63.70;;;;;;4929118;29;20413;-82
2021/06/11 10:00:59;;;;;;;2.92;1.92;;;34.80;66.00;;;;;;4905336;29;20616;-82
2021/06/11 10:03:27;;;;;;;2.30;2.10;;;35.20;62.90;;;;;;4900841;29;20391;-79
2021/06/11 10:05:57;;;;;;;2.30;1.75;;;34.70;61.10;;;;;;4916043;28;20425;-79
2021/06/11 10:08:23;;;;;;;2.05;1.85;;;34.90;62.50;;;;;;4896917;28;20793;-81
2021/06/11 10:10:50;;;;;;;2.30;2.10;;;35.10;62.10;;;;;;4899764;29;20399;-79
2021/06/11 10:13:17;;;;;;;2.08;1.90;;;35.50;63.00;;;;;;4912539;28;20920;-81
2021/06/11 10:15:43;;;;;;;2.00;1.90;;;35.80;62.20;;;;;;4888312;29;20406;-82
2021/06/11 10:18:09;;;;;;;2.03;1.92;;;35.80;59.20;;;;;;4920419;28;20405;-81
2021/06/11 10:20:35;;;;;;;1.90;1.80;;;36.20;62.30;;;;;;4948383;28;20815;-80
2021/06/11 10:23:01;;;;;;;1.90;1.80;;;36.40;57.50;;;;;;4927389;29;20421;-80
2021/06/11 10:25:27;;;;;;;1.92;1.80;;;36.20;57.50;;;;;;4901343;29;21528;-81
2021/06/11 10:27:53;;;;;;;2.00;1.80;;;36.20;56.60;;;;;;4888236;28;20398;-85
2021/06/11 10:30:18;;;;;;;2.03;1.93;;;35.90;55.10;;;;;;4905192;29;20416;-81
2021/06/11 10:32:48;;;;;;;2.33;2.13;;;36.50;56.80;;;;;;4906920;28;20410;-81
2021/06/11 10:35:37;;;;;;;2.10;1.90;;;36.30;56.20;;;;;;4904213;29;20407;-83
2021/06/11 10:38:03;;;;;;;2.60;2.10;;;36.20;55.30;;;;;;4931504;29;20406;-81
2021/06/11 10:40:32;;;;;;;2.58;2.25;;;36.30;55.90;;;;;;4888178;29;20440;-84
2021/06/11 10:43:23;;;;;;;2.08;1.98;;;36.70;55.00;;;;;;4903642;29;20493;-80
2021/06/11 10:45:49;;;;;;;2.67;2.17;;;36.60;55.10;;;;;;4927780;29;20428;-80
2021/06/11 10:48:16;;;;;;;2.53;2.33;;;37.20;55.10;;;;;;4925605;28;20397;-81
2021/06/11 10:50:42;;;;;;;9.73;3.33;;;37.50;54.30;;;;;;4906818;29;20469;-86
2021/06/11 10:53:15;;;;;;;2.00;1.90;;;37.60;53.90;;;;;;4922384;29;20450;-83
2021/06/11 10:55:48;;;;;;;2.05;1.95;;;37.40;53.60;;;;;;4894876;28;20453;-80
2021/06/11 10:58:14;;;;;;;1.80;1.70;;;37.20;55.40;;;;;;4898989;29;20426;-80
2021/06/11 11:00:40;;;;;;;2.05;1.85;;;37.10;51.90;;;;;;4910305;28;20402;-81
2021/06/11 11:03:07;;;;;;;2.22;2.03;;;37.10;51.40;;;;;;4885907;29;20426;-81
2021/06/11 11:05:40;;;;;;;1.90;1.80;;;36.60;53.20;;;;;;4901071;29;20423;-81
2021/06/11 11:08:07;;;;;;;5.72;2.80;;;36.60;53.80;;;;;;4894201;28;20517;-81
2021/06/11 11:10:44;;;;;;;2.30;2.10;;;36.40;52.00;;;;;;4924533;28;20509;-84
2021/06/11 11:13:16;;;;;;;1.98;1.88;;;36.50;51.60;;;;;;4917636;29;20531;-81
2021/06/11 11:15:42;;;;;;;2.00;1.90;;;37.00;54.30;;;;;;4899514;29;20407;-81
2021/06/11 11:18:39;;;;;;;1.88;1.77;;;37.50;53.00;;;;;;4923754;28;20417;-79
2021/06/11 11:21:23;;;;;;;1.70;1.60;;;37.50;53.30;;;;;;4908688;29;20409;-82
2021/06/11 11:23:53;;;;;;;2.10;2.00;;;37.20;50.70;;;;;;4924661;29;20943;-83
2021/06/11 11:26:20;;;;;;;2.10;1.88;;;37.40;51.20;;;;;;4928659;29;20496;-81
2021/06/11 11:28:46;;;;;;;2.33;2.13;;;37.60;50.60;;;;;;4920904;29;21046;-83
2021/06/11 11:31:13;;;;;;;2.30;2.10;;;37.10;50.20;;;;;;4921323;29;20442;-81
2021/06/11 11:33:39;;;;;;;2.20;2.00;;;37.00;48.60;;;;;;4908734;29;20413;-81
2021/06/11 11:36:05;;;;;;;6.05;1.77;;;37.40;51.90;;;;;;4932294;28;20475;-82
2021/06/11 11:38:30;;;;;;;2.20;2.10;;;37.60;51.10;;;;;;4906458;29;20410;-81
2021/06/11 11:40:56;;;;;;;2.23;2.03;;;37.20;51.80;;;;;;4915437;28;20410;-81
2021/06/11 11:43:22;;;;;;;1.90;1.80;;;37.20;49.90;;;;;;4904046;29;20390;-80
2021/06/11 11:45:47;;;;;;;2.30;2.10;;;36.80;49.40;;;;;;4904320;29;20421;-79
2021/06/11 11:48:19;;;;;;;6.10;2.00;;;36.30;49.80;;;;;;4926854;28;20477;-81
2021/06/11 11:50:45;;;;;;;2.03;1.92;;;36.10;51.70;;;;;;4888192;28;20398;-81
2021/06/11 11:53:10;;;;;;;1.95;1.85;;;35.90;49.20;;;;;;4912003;28;20412;-80
2021/06/11 11:55:36;;;;;;;2.20;2.00;;;35.20;50.90;;;;;;4888054;29;20437;-81
2021/06/11 11:58:02;;;;;;;2.23;2.03;;;35.00;50.50;;;;;;4904368;29;20955;-82
2021/06/11 12:00:28;;;;;;;2.00;1.90;;;34.50;51.40;;;;;;4901513;29;20776;-81
2021/06/11 12:02:57;;;;;;;5.57;2.28;;;34.50;52.20;;;;;;4904443;29;20461;-82
2021/06/11 12:05:22;;;;;;;1.75;1.63;;;34.50;52.80;;;;;;4884069;29;20423;-81
2021/06/11 12:07:48;;;;;;;1.90;1.80;;;34.50;53.20;;;;;;4920731;29;20485;-79
2021/06/11 12:10:14;;;;;;;1.93;1.83;;;34.30;54.00;;;;;;4056384;29;10000867;-81
2021/06/11 12:12:39;;;;;;;1.95;1.85;;;34.30;53.00;;;;;;4005318;29;10001435;-80
2021/06/11 12:15:06;;;;;;;2.00;1.90;;;34.20;52.50;;;;;;4039761;28;10000991;-81
2021/06/11 12:17:31;;;;;;;2.22;2.03;;;33.90;52.50;;;;;;4901477;29;20482;-82
2021/06/11 12:20:05;;;;;;;2.22;2.10;;;33.70;51.00;;;;;;4789127;28;10000543;-87
2021/06/11 12:22:44;;;;;;;1.70;1.60;;;33.70;53.50;;;;;;4008267;28;10002040;-83
2021/06/11 12:25:10;;;;;;;1.83;1.73;;;33.70;53.60;;;;;;3193828;29;10001333;-80
2021/06/11 12:27:36;;;;;;;1.92;1.83;;;33.50;54.00;;;;;;4900806;29;20971;-80
2021/06/11 12:30:02;;;;;;;2.00;1.90;;;33.20;53.60;;;;;;4915022;29;20398;-81
2021/06/11 12:32:28;;;;;;;1.93;1.83;;;32.90;56.10;;;;;;4044759;29;10001435;-81
2021/06/11 12:34:54;;;;;;;2.00;1.90;;;32.60;55.90;;;;;;4888332;29;20793;-81
2021/06/11 12:37:19;;;;;;;2.00;1.90;;;32.40;55.90;;;;;;4883333;29;20406;-82
2021/06/11 12:39:46;;;;;;;2.17;2.08;;;32.30;55.70;;;;;;4906987;29;20409;-81
2021/06/11 12:42:16;;;;;;;2.13;2.03;;;32.70;55.70;;;;;;4062723;28;10001189;-84
2021/06/11 12:44:51;;;;;;;2.58;2.10;;;32.90;54.50;;;;;;4026801;28;10000925;-82
2021/06/11 12:47:29;;;;;;;2.30;2.14;;;33.00;56.40;;;;;;3958666;28;10001422;-85